createdAt,value
2022-09-20T00:00:52.194Z,99029.78
2022-09-20T00:03:18.444Z,99028.72
2022-09-20T00:05:44.617Z,99022.31
2022-09-20T00:08:10.768Z,99019.28
2022-09-20T00:10:36.938Z,99020.72
2022-09-20T00:13:03.142Z,99021.78
2022-09-20T00:15:29.381Z,99028.59
2022-09-20T00:17:55.943Z,99027.66
2022-09-20T00:20:22.060Z,99022.53
2022-09-20T00:22:48.182Z,99025.44
2022-09-20T00:25:14.298Z,99029.88
2022-09-20T00:27:40.385Z,99022.97
2022-09-20T00:30:06.475Z,99026.16
2022-09-20T00:32:32.586Z,99027.50
2022-09-20T00:34:58.687Z,99026.13
2022-09-20T00:37:24.812Z,99026.38
2022-09-20T00:39:50.935Z,99024.19
2022-09-20T00:42:17.032Z,99033.25
2022-09-20T00:44:43.138Z,99027.28
2022-09-20T00:47:09.254Z,99036.66
2022-09-20T00:49:35.348Z,99028.03
2022-09-20T00:52:01.472Z,99032.50
2022-09-20T00:54:27.586Z,99036.53
2022-09-20T00:56:53.701Z,99031.81
2022-09-20T00:59:19.785Z,99031.81
2022-09-20T01:01:45.904Z,99031.31
2022-09-20T01:04:12.006Z,99029.25
2022-09-20T01:06:38.084Z,99026.91
2022-09-20T01:09:04.231Z,99024.94
2022-09-20T01:11:30.320Z,99026.59
2022-09-20T01:13:56.424Z,99025.94
2022-09-20T01:16:22.609Z,99023.94
2022-09-20T01:18:48.708Z,99027.97
2022-09-20T01:21:14.814Z,99027.28
2022-09-20T01:23:40.924Z,99026.47
2022-09-20T01:26:07.021Z,99032.31
2022-09-20T01:28:33.119Z,99029.25
2022-09-20T01:30:59.236Z,99034.84
2022-09-20T01:33:25.320Z,99031.94
2022-09-20T01:35:51.410Z,99029.97
2022-09-20T01:38:17.533Z,99032.78
2022-09-20T01:40:43.677Z,99031.94
2022-09-20T01:43:09.793Z,99029.94
2022-09-20T01:45:35.938Z,99031.06
2022-09-20T01:48:02.046Z,99036.53
2022-09-20T01:50:28.142Z,99032.88
2022-09-20T01:52:54.244Z,99040.00
2022-09-20T01:55:20.322Z,99034.53
2022-09-20T01:57:46.420Z,99040.56
2022-09-20T02:00:12.534Z,99038.47
2022-09-20T02:02:38.676Z,99041.41
2022-09-20T02:05:04.868Z,99034.31
2022-09-20T02:07:31.011Z,99031.88
2022-09-20T02:09:57.118Z,99029.69
2022-09-20T02:12:23.224Z,99027.34
2022-09-20T02:14:49.343Z,99036.66
2022-09-20T02:17:15.454Z,99033.63
2022-09-20T02:19:41.600Z,99035.28
2022-09-20T02:22:08.193Z,99036.34
2022-09-20T02:24:34.288Z,99029.41
2022-09-20T02:27:00.401Z,99038.03
2022-09-20T02:29:27.023Z,99033.19
2022-09-20T02:31:53.139Z,99039.16
2022-09-20T02:34:19.279Z,99033.88
2022-09-20T02:36:45.392Z,99029.25
2022-09-20T02:39:11.485Z,99033.13
2022-09-20T02:41:37.572Z,99042.38
2022-09-20T02:44:03.671Z,99039.72
2022-09-20T02:46:29.780Z,99037.34
2022-09-20T02:48:55.882Z,99034.09
2022-09-20T02:51:21.994Z,99036.00
2022-09-20T02:53:48.077Z,99040.38
2022-09-20T02:56:14.162Z,99040.75
2022-09-20T02:58:40.280Z,99042.66
2022-09-20T03:01:06.441Z,99041.38
2022-09-20T03:03:32.553Z,99035.09
2022-09-20T03:05:58.707Z,99040.56
2022-09-20T03:08:24.802Z,99037.75
2022-09-20T03:10:50.902Z,99040.38
2022-09-20T03:13:17.004Z,99034.63
2022-09-20T03:15:43.093Z,99035.78
2022-09-20T03:18:09.198Z,99035.53
2022-09-20T03:20:35.332Z,99030.31
2022-09-20T03:23:01.420Z,99040.16
2022-09-20T03:25:27.551Z,99027.00
2022-09-20T03:27:54.011Z,99033.69
2022-09-20T03:30:20.105Z,99031.06
2022-09-20T03:32:46.206Z,99035.81
2022-09-20T03:35:12.313Z,99034.31
2022-09-20T03:37:38.414Z,99026.50
2022-09-20T03:40:04.620Z,99028.47
2022-09-20T03:42:30.815Z,99033.94
2022-09-20T03:44:56.925Z,99031.84
2022-09-20T03:47:23.061Z,99036.47
2022-09-20T03:49:49.183Z,99034.63
2022-09-20T03:52:15.311Z,99033.03
2022-09-20T03:54:41.397Z,99033.94
2022-09-20T03:57:07.515Z,99030.34
2022-09-20T03:59:33.600Z,99024.66
2022-09-20T04:01:59.723Z,99029.53
2022-09-20T04:04:25.860Z,99037.06
2022-09-20T04:06:51.953Z,99035.63
2022-09-20T04:09:18.045Z,99030.66
2022-09-20T04:11:44.161Z,99036.16
2022-09-20T04:14:11.515Z,99034.63
2022-09-20T04:16:37.878Z,99035.78
2022-09-20T04:19:04.822Z,99029.13
2022-09-20T04:21:30.977Z,99039.88
2022-09-20T04:23:57.098Z,99036.84
2022-09-20T04:26:23.191Z,99035.34
2022-09-20T04:28:49.285Z,99036.03
2022-09-20T04:31:15.422Z,99047.47
2022-09-20T04:33:41.553Z,99041.84
2022-09-20T04:36:07.638Z,99036.16
2022-09-20T04:38:33.726Z,99037.59
2022-09-20T04:40:59.836Z,99032.66
2022-09-20T04:43:25.940Z,99036.22
2022-09-20T04:45:52.090Z,99043.63
2022-09-20T04:48:18.232Z,99045.63
2022-09-20T04:50:44.341Z,99047.13
2022-09-20T04:53:10.431Z,99058.69
2022-09-20T04:55:36.547Z,99053.38
2022-09-20T04:58:02.644Z,99057.09
2022-09-20T05:00:28.732Z,99057.28
2022-09-20T05:02:54.843Z,99056.66
2022-09-20T05:05:20.940Z,99060.00
2022-09-20T05:07:47.017Z,99060.19
2022-09-20T05:10:13.125Z,99059.19
2022-09-20T05:12:39.219Z,99065.38
2022-09-20T05:15:05.329Z,99068.19
2022-09-20T05:17:31.438Z,99066.53
2022-09-20T05:19:57.530Z,99067.69
2022-09-20T05:22:23.619Z,99061.78
2022-09-20T05:24:49.738Z,99063.28
2022-09-20T05:27:15.825Z,99069.53
2022-09-20T05:29:41.914Z,99068.25
2022-09-20T05:32:08.836Z,99066.53
2022-09-20T05:34:34.978Z,99068.88
2022-09-20T05:37:01.086Z,99075.72
2022-09-20T05:39:27.206Z,99066.69
2022-09-20T05:41:53.288Z,99072.25
2022-09-20T05:44:19.374Z,99067.22
2022-09-20T05:46:45.517Z,99070.50
2022-09-20T05:49:11.605Z,99068.53
2022-09-20T05:51:37.683Z,99082.28
2022-09-20T05:54:03.833Z,99078.44
2022-09-20T05:56:29.925Z,99083.59
2022-09-20T05:58:56.051Z,99086.25
2022-09-20T06:01:22.202Z,99087.06
2022-09-20T06:03:48.377Z,99087.00
2022-09-20T06:06:14.504Z,99096.63
2022-09-20T06:08:40.638Z,99099.88
2022-09-20T06:11:06.793Z,99102.69
2022-09-20T06:13:32.881Z,99101.63
2022-09-20T06:15:59.055Z,99096.09
2022-09-20T06:18:25.169Z,99091.09
2022-09-20T06:20:51.366Z,99090.81
2022-09-20T06:23:17.478Z,99090.81
2022-09-20T06:25:43.583Z,99094.75
2022-09-20T06:28:09.669Z,99098.91
2022-09-20T06:30:35.819Z,99101.56
2022-09-20T06:33:01.926Z,99101.03
2022-09-20T06:35:28.010Z,99102.75
2022-09-20T06:37:54.394Z,99097.69
2022-09-20T06:40:20.550Z,99097.94
2022-09-20T06:42:46.666Z,99106.25
2022-09-20T06:45:12.773Z,99099.81
2022-09-20T06:47:39.035Z,99114.44
2022-09-20T06:50:05.140Z,99106.81
2022-09-20T06:52:31.241Z,99117.53
2022-09-20T06:54:57.331Z,99119.47
2022-09-20T06:57:23.427Z,99118.59
2022-09-20T06:59:49.580Z,99119.28
2022-09-20T07:02:15.697Z,99122.00
2022-09-20T07:04:41.823Z,99123.50
2022-09-20T07:07:09.630Z,99128.66
2022-09-20T07:09:35.783Z,99127.06
2022-09-20T07:12:01.877Z,99126.88
2022-09-20T07:14:27.992Z,99117.72
2022-09-20T07:16:54.142Z,99131.28
2022-09-20T07:19:20.256Z,99124.59
2022-09-20T07:21:46.372Z,99137.06
2022-09-20T07:24:12.465Z,99138.56
2022-09-20T07:26:38.555Z,99139.50
2022-09-20T07:29:04.760Z,99145.94
2022-09-20T07:31:30.918Z,99152.28
2022-09-20T07:33:57.044Z,99144.00
2022-09-20T07:36:23.161Z,99149.03
2022-09-20T07:38:49.247Z,99153.97
2022-09-20T07:41:15.329Z,99150.19
2022-09-20T07:43:41.430Z,99155.00
2022-09-20T07:46:07.588Z,99154.16
2022-09-20T07:48:33.712Z,99154.34
2022-09-20T07:50:59.817Z,99153.50
2022-09-20T07:53:25.962Z,99154.44
2022-09-20T07:55:52.053Z,99155.72
2022-09-20T07:58:18.180Z,99158.72
2022-09-20T08:00:44.289Z,99158.69
2022-09-20T08:03:10.546Z,99165.19
2022-09-20T08:05:36.690Z,99159.75
2022-09-20T08:08:02.780Z,99164.94
2022-09-20T08:10:28.869Z,99171.22
2022-09-20T08:15:41.076Z,99170.34
2022-09-20T08:18:07.185Z,99165.94
2022-09-20T08:20:33.357Z,99174.09
2022-09-20T08:23:22.038Z,99159.97
2022-09-20T08:25:45.602Z,99164.31
2022-09-20T08:28:11.820Z,99170.00
2022-09-20T08:30:37.908Z,99165.56
2022-09-20T08:33:04.021Z,99164.41
2022-09-20T08:35:30.125Z,99171.38
2022-09-20T08:37:56.393Z,99169.22
2022-09-20T08:40:23.114Z,99168.38
2022-09-20T08:42:49.216Z,99172.69
2022-09-20T08:45:22.260Z,99168.19
2022-09-20T08:47:48.806Z,99177.00
2022-09-20T08:50:17.633Z,99180.81
2022-09-20T08:52:44.149Z,99176.53
2022-09-20T08:55:10.346Z,99177.69
2022-09-20T08:57:36.518Z,99175.66
2022-09-20T09:00:02.665Z,99178.38
2022-09-20T09:02:28.819Z,99181.84
2022-09-20T09:04:55.009Z,99180.38
2022-09-20T09:07:21.096Z,99187.19
2022-09-20T09:09:47.212Z,99188.19
2022-09-20T09:12:13.309Z,99192.66
2022-09-20T09:14:39.408Z,99191.34
2022-09-20T09:17:05.599Z,99191.00
2022-09-20T09:19:34.699Z,99189.69
2022-09-20T09:22:00.790Z,99196.81
2022-09-20T09:24:27.044Z,99192.31
2022-09-20T09:26:53.168Z,99190.66
2022-09-20T09:29:19.279Z,99192.00
2022-09-20T09:31:45.507Z,99192.66
2022-09-20T09:34:11.639Z,99186.00
2022-09-20T09:36:37.748Z,99194.81
2022-09-20T09:39:03.891Z,99191.16
2022-09-20T09:41:29.984Z,99196.31
2022-09-20T09:43:56.167Z,99193.31
2022-09-20T09:46:22.413Z,99202.81
2022-09-20T09:48:48.559Z,99210.28
2022-09-20T09:51:14.657Z,99207.97
2022-09-20T09:53:40.761Z,99205.28
2022-09-20T09:56:10.834Z,99201.66
2022-09-20T09:58:39.502Z,99204.44
2022-09-20T10:01:05.675Z,99207.28
2022-09-20T10:03:31.817Z,99201.81
2022-09-20T10:05:57.924Z,99208.47
2022-09-20T10:08:24.020Z,99204.63
2022-09-20T10:10:50.105Z,99196.31
2022-09-20T10:13:16.220Z,99197.31
2022-09-20T10:15:42.340Z,99201.31
2022-09-20T10:18:08.680Z,99207.44
2022-09-20T10:20:34.826Z,99198.28
2022-09-20T10:23:34.461Z,99193.78
2022-09-20T10:25:47.017Z,99192.78
2022-09-20T10:28:13.128Z,99190.47
2022-09-20T10:30:39.240Z,99198.66
2022-09-20T10:33:05.366Z,99203.41
2022-09-20T10:35:31.464Z,99194.47
2022-09-20T10:37:57.583Z,99202.47
2022-09-20T10:40:23.733Z,99200.81
2022-09-20T10:42:49.921Z,99197.59
2022-09-20T10:45:29.839Z,99190.47
2022-09-20T10:48:02.137Z,99193.94
2022-09-20T10:50:28.246Z,99190.94
2022-09-20T10:52:54.350Z,99192.88
2022-09-20T10:55:20.750Z,99192.59
2022-09-20T10:57:47.094Z,99193.16
2022-09-20T11:00:13.236Z,99194.34
2022-09-20T11:02:39.455Z,99193.91
2022-09-20T11:05:05.598Z,99194.13
2022-09-20T11:07:32.731Z,99193.97
2022-09-20T11:09:58.934Z,99194.72
2022-09-20T11:12:25.044Z,99190.81
2022-09-20T11:14:51.129Z,99194.50
2022-09-20T11:17:17.258Z,99198.19
2022-09-20T11:19:43.405Z,99199.91
2022-09-20T11:22:09.526Z,99211.25
2022-09-20T11:24:36.147Z,99203.75
2022-09-20T11:27:02.238Z,99204.00
2022-09-20T11:29:29.782Z,99199.63
2022-09-20T11:31:55.992Z,99207.81
2022-09-20T11:34:22.171Z,99201.78
2022-09-20T11:36:48.275Z,99200.22
2022-09-20T11:39:14.396Z,99199.63
2022-09-20T11:41:40.489Z,99199.19
2022-09-20T11:44:06.580Z,99205.00
2022-09-20T11:46:32.740Z,99189.91
2022-09-20T11:48:58.849Z,99207.38
2022-09-20T11:51:24.953Z,99204.22
2022-09-20T11:53:51.073Z,99195.13
2022-09-20T11:56:17.158Z,99198.28
2022-09-20T11:58:43.256Z,99201.50
2022-09-20T12:01:09.409Z,99188.28
2022-09-20T12:03:35.565Z,99195.34
2022-09-20T12:06:01.698Z,99186.19
2022-09-20T12:08:27.817Z,99197.56
2022-09-20T12:10:53.907Z,99187.66
2022-09-20T12:13:19.996Z,99189.16
2022-09-20T12:15:46.097Z,99185.28
2022-09-20T12:18:12.237Z,99187.72
2022-09-20T12:20:38.361Z,99185.94
2022-09-20T12:23:04.464Z,99187.63
2022-09-20T12:25:30.576Z,99184.31
2022-09-20T12:27:56.715Z,99196.22
2022-09-20T12:30:22.890Z,99189.25
2022-09-20T12:32:48.991Z,99185.16
2022-09-20T12:35:15.108Z,99192.63
2022-09-20T12:37:41.220Z,99187.13
2022-09-20T12:40:07.561Z,99193.28
2022-09-20T12:42:33.788Z,99181.31
2022-09-20T12:44:59.976Z,99185.09
2022-09-20T12:47:26.069Z,99187.25
2022-09-20T12:49:52.164Z,99180.53
2022-09-20T12:52:18.291Z,99176.91
2022-09-20T12:54:44.578Z,99174.50
2022-09-20T12:57:10.666Z,99171.22
2022-09-20T12:59:36.790Z,99181.63
2022-09-20T13:02:02.912Z,99184.16
2022-09-20T13:04:29.675Z,99181.38
2022-09-20T13:06:56.255Z,99181.41
2022-09-20T13:09:22.379Z,99175.63
2022-09-20T13:11:48.504Z,99180.50
2022-09-20T13:14:14.626Z,99181.03
2022-09-20T13:16:40.802Z,99181.44
2022-09-20T13:19:07.121Z,99176.75
2022-09-20T13:21:33.461Z,99175.94
2022-09-20T13:23:59.577Z,99172.81
2022-09-20T13:26:25.675Z,99174.66
2022-09-20T13:28:51.794Z,99177.13
2022-09-20T13:31:17.926Z,99171.94
2022-09-20T13:33:44.058Z,99170.16
2022-09-20T13:36:10.200Z,99185.59
2022-09-20T13:38:36.300Z,99182.88
2022-09-20T13:41:02.398Z,99180.84
2022-09-20T13:43:28.516Z,99173.66
2022-09-20T13:45:54.658Z,99189.63
2022-09-20T13:48:20.818Z,99187.75
2022-09-20T13:50:51.390Z,99176.94
2022-09-20T13:53:39.349Z,99183.94
2022-09-20T13:56:05.776Z,99196.44
2022-09-20T13:58:31.900Z,99184.34
2022-09-20T14:00:58.062Z,99180.09
2022-09-20T14:03:24.273Z,99193.16
2022-09-20T14:05:50.367Z,99190.81
2022-09-20T14:08:16.504Z,99193.44
2022-09-20T14:10:42.605Z,99190.81
2022-09-20T14:13:08.695Z,99188.63
2022-09-20T14:15:34.825Z,99197.75
2022-09-20T14:18:00.929Z,99177.25
2022-09-20T14:20:27.118Z,99182.53
2022-09-20T14:22:56.110Z,99190.13
2022-09-20T14:25:25.131Z,99189.59
2022-09-20T14:27:51.227Z,99185.00
2022-09-20T14:30:17.307Z,99190.69
2022-09-20T14:32:43.412Z,99188.63
2022-09-20T14:35:09.681Z,99180.41
2022-09-20T14:37:35.839Z,99183.69
2022-09-20T14:40:02.088Z,99182.91
2022-09-20T14:42:28.275Z,99174.00
2022-09-20T14:44:54.363Z,99173.41
2022-09-20T14:47:20.465Z,99185.81
2022-09-20T14:49:46.566Z,99182.88
2022-09-20T14:52:12.652Z,99171.91
2022-09-20T14:54:38.792Z,99180.91
2022-09-20T14:57:04.895Z,99194.16
2022-09-20T14:59:30.996Z,99201.53
2022-09-20T15:01:57.110Z,99195.38
2022-09-20T15:04:23.224Z,99184.38
2022-09-20T15:06:49.304Z,99191.75
2022-09-20T15:09:15.714Z,99200.31
2022-09-20T15:11:41.815Z,99189.13
2022-09-20T15:14:07.900Z,99188.53
2022-09-20T15:16:34.055Z,99180.31
2022-09-20T15:19:00.194Z,99185.69
2022-09-20T15:21:26.285Z,99180.38
2022-09-20T15:23:52.393Z,99183.03
2022-09-20T15:26:18.486Z,99190.56
2022-09-20T15:28:44.713Z,99187.97
2022-09-20T15:31:10.896Z,99195.91
2022-09-20T15:33:37.034Z,99193.59
2022-09-20T15:36:03.135Z,99200.88
2022-09-20T15:38:29.250Z,99195.19
2022-09-20T15:40:55.338Z,99192.84
2022-09-20T15:43:21.421Z,99193.00
2022-09-20T15:45:47.566Z,99197.00
2022-09-20T15:48:13.680Z,99189.50
2022-09-20T15:50:39.765Z,99194.25
2022-09-20T15:53:05.892Z,99190.41
2022-09-20T15:55:31.990Z,99185.91
2022-09-20T15:57:58.112Z,99181.19
2022-09-20T16:00:24.709Z,99198.09
2022-09-20T16:02:50.798Z,99195.03
2022-09-20T16:05:16.886Z,99196.09
2022-09-20T16:07:43.007Z,99201.00
2022-09-20T16:10:09.110Z,99194.41
2022-09-20T16:12:35.199Z,99196.69
2022-09-20T16:15:01.315Z,99200.19
2022-09-20T16:17:27.407Z,99194.66
2022-09-20T16:19:53.498Z,99203.34
2022-09-20T16:22:19.597Z,99205.00
2022-09-20T16:24:45.686Z,99208.69
2022-09-20T16:27:11.779Z,99205.81
2022-09-20T16:29:37.893Z,99202.66
2022-09-20T16:32:03.994Z,99214.16
2022-09-20T16:34:30.078Z,99215.25
2022-09-20T16:36:56.180Z,99207.22
2022-09-20T16:39:22.273Z,99217.44
2022-09-20T16:41:48.383Z,99219.25
2022-09-20T16:44:14.529Z,99217.72
2022-09-20T16:46:40.632Z,99228.69
2022-09-20T16:49:06.888Z,99225.03
2022-09-20T16:51:33.054Z,99224.63
2022-09-20T16:53:59.133Z,99222.13
2022-09-20T16:56:25.250Z,99227.06
2022-09-20T16:58:51.379Z,99225.66
2022-09-20T17:01:17.563Z,99225.00
2022-09-20T17:03:43.668Z,99228.66
2022-09-20T17:06:09.772Z,99236.72
2022-09-20T17:08:35.870Z,99235.38
2022-09-20T17:11:01.964Z,99228.75
2022-09-20T17:13:28.134Z,99227.47
2022-09-20T17:15:54.226Z,99244.91
2022-09-20T17:18:20.328Z,99250.69
2022-09-20T17:20:46.437Z,99252.72
2022-09-20T17:23:12.529Z,99258.63
2022-09-20T17:25:38.627Z,99268.31
2022-09-20T17:28:04.729Z,99259.97
2022-09-20T17:30:30.822Z,99263.97
2022-09-20T17:32:56.938Z,99274.69
2022-09-20T17:35:23.031Z,99264.38
2022-09-20T17:37:49.172Z,99269.31
2022-09-20T17:40:15.300Z,99274.72
2022-09-20T17:42:41.459Z,99274.06
2022-09-20T17:45:07.658Z,99270.53
2022-09-20T17:47:33.767Z,99268.56
2022-09-20T17:49:59.913Z,99275.41
2022-09-20T17:52:26.009Z,99278.75
2022-09-20T17:54:52.197Z,99283.78
2022-09-20T17:57:18.311Z,99273.78
2022-09-20T17:59:44.414Z,99275.44
2022-09-20T18:02:10.510Z,99280.78
2022-09-20T18:04:37.093Z,99280.13
2022-09-20T18:07:03.176Z,99286.47
2022-09-20T18:09:29.269Z,99276.78
2022-09-20T18:11:55.446Z,99287.97
2022-09-20T18:14:21.568Z,99296.59
2022-09-20T18:16:47.673Z,99287.13
2022-09-20T18:19:14.322Z,99292.44
2022-09-20T18:21:40.422Z,99298.66
2022-09-20T18:24:06.515Z,99302.47
2022-09-20T18:26:32.745Z,99303.63
2022-09-20T18:28:59.246Z,99304.09
2022-09-20T18:31:25.379Z,99304.44
2022-09-20T18:33:51.604Z,99309.91
2022-09-20T18:36:17.706Z,99311.72
2022-09-20T18:38:43.799Z,99312.88
2022-09-20T18:41:10.279Z,99310.56
2022-09-20T18:43:36.357Z,99318.69
2022-09-20T18:46:02.436Z,99315.34
2022-09-20T18:48:28.547Z,99314.81
2022-09-20T18:50:54.639Z,99312.66
2022-09-20T18:53:20.726Z,99314.97
2022-09-20T18:55:46.842Z,99317.16
2022-09-20T18:58:12.942Z,99319.63
2022-09-20T19:00:39.113Z,99320.44
2022-09-20T19:03:10.027Z,99316.94
2022-09-20T19:05:36.443Z,99318.56
2022-09-20T19:08:02.526Z,99320.41
2022-09-20T19:10:28.725Z,99328.06
2022-09-20T19:12:54.813Z,99318.03
2022-09-20T19:15:20.919Z,99324.03
2022-09-20T19:17:47.036Z,99335.56
2022-09-20T19:20:13.131Z,99334.06
2022-09-20T19:22:39.265Z,99330.72
2022-09-20T19:25:05.489Z,99334.16
2022-09-20T19:27:31.605Z,99333.28
2022-09-20T19:29:57.706Z,99342.56
2022-09-20T19:32:23.814Z,99343.84
2022-09-20T19:34:49.905Z,99334.09
2022-09-20T19:37:16.012Z,99350.91
2022-09-20T19:39:42.136Z,99348.72
2022-09-20T19:42:08.278Z,99349.66
2022-09-20T19:44:34.373Z,99369.44
2022-09-20T19:47:01.928Z,99363.66
2022-09-20T19:49:28.191Z,99354.53
2022-09-20T19:51:54.290Z,99364.63
2022-09-20T19:54:20.427Z,99358.81
2022-09-20T19:56:46.549Z,99360.09
2022-09-20T19:59:12.646Z,99356.88
2022-09-20T20:01:38.805Z,99363.88
2022-09-20T20:04:05.020Z,99361.22
2022-09-20T20:06:31.191Z,99364.94
2022-09-20T20:08:57.318Z,99372.91
2022-09-20T20:11:23.408Z,99372.34
2022-09-20T20:13:49.517Z,99377.91
2022-09-20T20:16:15.694Z,99378.28
2022-09-20T20:18:41.813Z,99373.50
2022-09-20T20:21:07.907Z,99374.63
2022-09-20T20:23:34.291Z,99371.06
2022-09-20T20:26:00.381Z,99372.88
2022-09-20T20:28:26.476Z,99364.66
2022-09-20T20:30:55.582Z,99370.09
2022-09-20T20:33:23.969Z,99384.84
2022-09-20T20:35:50.056Z,99381.94
2022-09-20T20:38:16.182Z,99384.69
2022-09-20T20:40:42.273Z,99387.91
2022-09-20T20:43:08.361Z,99395.81
2022-09-20T20:45:34.480Z,99389.00
2022-09-20T20:48:00.579Z,99378.78
2022-09-20T20:50:26.664Z,99391.06
2022-09-20T20:52:52.786Z,99390.50
2022-09-20T20:55:18.876Z,99394.63
2022-09-20T20:57:44.970Z,99394.16
2022-09-20T21:00:11.088Z,99397.53
2022-09-20T21:02:37.217Z,99391.88
2022-09-20T21:05:03.360Z,99401.78
2022-09-20T21:07:29.479Z,99403.72
2022-09-20T21:09:55.584Z,99399.38
2022-09-20T21:12:21.682Z,99398.41
2022-09-20T21:14:48.205Z,99400.38
2022-09-20T21:17:14.310Z,99407.06
2022-09-20T21:19:40.406Z,99410.97
2022-09-20T21:22:06.511Z,99410.69
2022-09-20T21:24:32.592Z,99413.66
2022-09-20T21:26:58.677Z,99419.53
2022-09-20T21:29:24.830Z,99415.06
2022-09-20T21:31:50.912Z,99425.50
2022-09-20T21:34:17.007Z,99413.09
2022-09-20T21:36:43.122Z,99417.31
2022-09-20T21:39:09.244Z,99416.47
2022-09-20T21:41:35.480Z,99429.59
2022-09-20T21:44:01.604Z,99416.50
2022-09-20T21:46:27.767Z,99414.25
2022-09-20T21:48:53.962Z,99422.75
2022-09-20T21:51:20.123Z,99419.00
2022-09-20T21:53:46.220Z,99422.56
2022-09-20T21:56:12.297Z,99421.75
2022-09-20T21:58:38.410Z,99425.41
2022-09-20T22:01:04.542Z,99427.34
2022-09-20T22:03:30.661Z,99419.13
2022-09-20T22:05:56.771Z,99423.72
2022-09-20T22:08:22.870Z,99431.09
2022-09-20T22:10:48.968Z,99431.50
2022-09-20T22:13:15.080Z,99429.28
2022-09-20T22:15:41.182Z,99430.16
2022-09-20T22:18:07.291Z,99439.91
2022-09-20T22:20:33.446Z,99433.50
2022-09-20T22:22:59.537Z,99437.97
2022-09-20T22:25:25.653Z,99436.28
2022-09-20T22:27:51.764Z,99439.09
2022-09-20T22:30:17.867Z,99434.28
2022-09-20T22:32:43.985Z,99434.88
2022-09-20T22:35:10.117Z,99432.38
2022-09-20T22:37:36.206Z,99432.38
2022-09-20T22:40:02.356Z,99437.13
2022-09-20T22:42:28.524Z,99436.13
2022-09-20T22:44:54.694Z,99434.59
2022-09-20T22:47:20.798Z,99442.44
2022-09-20T22:49:46.941Z,99434.09
2022-09-20T22:52:13.053Z,99434.91
2022-09-20T22:54:39.140Z,99429.88
2022-09-20T22:57:05.326Z,99433.22
2022-09-20T22:59:31.425Z,99427.94
2022-09-20T23:01:57.564Z,99428.34
2022-09-20T23:04:23.675Z,99437.69
2022-09-20T23:06:49.764Z,99435.34
2022-09-20T23:09:15.859Z,99433.09
2022-09-20T23:11:41.972Z,99435.34
2022-09-20T23:14:08.071Z,99434.06
2022-09-20T23:16:34.197Z,99439.50
2022-09-20T23:19:00.363Z,99435.16
2022-09-20T23:21:26.452Z,99435.72
2022-09-20T23:23:52.556Z,99437.97
2022-09-20T23:26:18.673Z,99436.44
2022-09-20T23:28:44.768Z,99439.34
2022-09-20T23:31:10.878Z,99430.16
2022-09-20T23:33:37.514Z,99433.63
2022-09-20T23:36:03.615Z,99430.97
2022-09-20T23:38:29.709Z,99439.19
2022-09-20T23:40:55.820Z,99442.34
2022-09-20T23:43:21.909Z,99443.16
2022-09-20T23:45:48.003Z,99438.72
2022-09-20T23:48:14.144Z,99443.75
2022-09-20T23:50:40.226Z,99437.19
2022-09-20T23:53:06.313Z,99439.69
2022-09-20T23:55:32.431Z,99430.50
2022-09-20T23:57:58.532Z,99438.16
